sensor_id;sensor_type;location;lat;lon;timestamp;P1;durP1;ratioP1;P2;durP2;ratioP2
46022;SDS011;31756;47.936;16.224;2022-12-18T00:00:46;34.80;;;16.13;;
46022;SDS011;31756;47.936;16.224;2022-12-18T00:03:13;38.67;;;19.83;;
46022;SDS011;31756;47.936;16.224;2022-12-18T00:05:48;43.17;;;20.73;;
46022;SDS011;31756;47.936;16.224;2022-12-18T00:08:16;40.57;;;19.90;;
46022;SDS011;31756;47.936;16.224;2022-12-18T00:10:42;36.80;;;19.50;;
46022;SDS011;31756;47.936;16.224;2022-12-18T00:13:09;39.87;;;17.83;;
46022;SDS011;31756;47.936;16.224;2022-12-18T00:15:36;36.90;;;17.47;;
46022;SDS011;31756;47.936;16.224;2022-12-18T00:18:03;31.73;;;16.13;;
46022;SDS011;31756;47.936;16.224;2022-12-18T00:20:29;30.37;;;14.27;;
46022;SDS011;31756;47.936;16.224;2022-12-18T00:22:54;25.17;;;11.07;;
46022;SDS011;31756;47.936;16.224;2022-12-18T00:25:20;18.07;;;9.87;;
46022;SDS011;31756;47.936;16.224;2022-12-18T00:27:46;18.63;;;10.50;;
46022;SDS011;31756;47.936;16.224;2022-12-18T00:30:13;21.57;;;10.77;;
46022;SDS011;31756;47.936;16.224;2022-12-18T00:32:38;18.23;;;9.90;;
46022;SDS011;31756;47.936;16.224;2022-12-18T00:35:05;22.37;;;11.03;;
46022;SDS011;31756;47.936;16.224;2022-12-18T00:37:32;21.80;;;11.50;;
46022;SDS011;31756;47.936;16.224;2022-12-18T00:39:59;20.30;;;9.97;;
46022;SDS011;31756;47.936;16.224;2022-12-18T00:42:25;18.00;;;9.70;;
46022;SDS011;31756;47.936;16.224;2022-12-18T00:45:09;18.20;;;8.53;;
46022;SDS011;31756;47.936;16.224;2022-12-18T00:47:35;17.80;;;8.80;;
46022;SDS011;31756;47.936;16.224;2022-12-18T00:50:00;19.13;;;10.50;;
46022;SDS011;31756;47.936;16.224;2022-12-18T00:52:29;17.43;;;9.50;;
46022;SDS011;31756;47.936;16.224;2022-12-18T00:54:54;17.97;;;9.00;;
46022;SDS011;31756;47.936;16.224;2022-12-18T00:57:20;17.00;;;9.23;;
46022;SDS011;31756;47.936;16.224;2022-12-18T00:59:46;18.33;;;9.17;;
46022;SDS011;31756;47.936;16.224;2022-12-18T01:02:11;16.53;;;9.03;;
46022;SDS011;31756;47.936;16.224;2022-12-18T01:04:37;21.53;;;10.90;;
46022;SDS011;31756;47.936;16.224;2022-12-18T01:07:02;22.93;;;10.37;;
46022;SDS011;31756;47.936;16.224;2022-12-18T01:09:28;17.00;;;9.23;;
46022;SDS011;31756;47.936;16.224;2022-12-18T01:11:54;18.07;;;9.70;;
46022;SDS011;31756;47.936;16.224;2022-12-18T01:14:19;15.83;;;9.23;;
46022;SDS011;31756;47.936;16.224;2022-12-18T01:16:45;21.33;;;9.13;;
46022;SDS011;31756;47.936;16.224;2022-12-18T01:19:11;18.17;;;8.90;;
46022;SDS011;31756;47.936;16.224;2022-12-18T01:21:36;15.30;;;9.10;;
46022;SDS011;31756;47.936;16.224;2022-12-18T01:24:03;19.70;;;9.80;;
46022;SDS011;31756;47.936;16.224;2022-12-18T01:26:29;16.03;;;8.17;;
46022;SDS011;31756;47.936;16.224;2022-12-18T01:28:56;15.27;;;8.30;;
46022;SDS011;31756;47.936;16.224;2022-12-18T01:33:50;17.53;;;8.23;;
46022;SDS011;31756;47.936;16.224;2022-12-18T01:38:53;16.57;;;8.13;;
46022;SDS011;31756;47.936;16.224;2022-12-18T01:41:20;17.43;;;8.67;;
46022;SDS011;31756;47.936;16.224;2022-12-18T01:43:52;13.27;;;7.00;;
46022;SDS011;31756;47.936;16.224;2022-12-18T01:46:21;15.70;;;7.87;;
46022;SDS011;31756;47.936;16.224;2022-12-18T01:48:49;15.90;;;7.20;;
46022;SDS011;31756;47.936;16.224;2022-12-18T01:51:19;19.17;;;8.87;;
46022;SDS011;31756;47.936;16.224;2022-12-18T01:53:45;14.43;;;7.63;;
46022;SDS011;31756;47.936;16.224;2022-12-18T01:56:13;14.13;;;7.50;;
46022;SDS011;31756;47.936;16.224;2022-12-18T01:58:45;14.97;;;8.07;;
46022;SDS011;31756;47.936;16.224;2022-12-18T02:01:16;16.10;;;7.90;;
46022;SDS011;31756;47.936;16.224;2022-12-18T02:03:43;15.60;;;8.80;;
46022;SDS011;31756;47.936;16.224;2022-12-18T02:06:21;14.47;;;8.17;;
46022;SDS011;31756;47.936;16.224;2022-12-18T02:09:06;15.57;;;9.00;;
46022;SDS011;31756;47.936;16.224;2022-12-18T02:25:00;20.60;;;10.40;;
46022;SDS011;31756;47.936;16.224;2022-12-18T02:27:37;25.10;;;12.07;;
46022;SDS011;31756;47.936;16.224;2022-12-18T02:30:05;22.63;;;12.07;;
46022;SDS011;31756;47.936;16.224;2022-12-18T02:32:36;23.30;;;10.43;;
46022;SDS011;31756;47.936;16.224;2022-12-18T02:35:06;24.70;;;12.37;;
46022;SDS011;31756;47.936;16.224;2022-12-18T02:37:35;23.63;;;11.10;;
46022;SDS011;31756;47.936;16.224;2022-12-18T02:40:05;29.37;;;11.83;;
46022;SDS011;31756;47.936;16.224;2022-12-18T02:42:35;25.63;;;12.13;;
46022;SDS011;31756;47.936;16.224;2022-12-18T02:45:03;18.07;;;10.53;;
46022;SDS011;31756;47.936;16.224;2022-12-18T02:47:34;24.60;;;11.43;;
46022;SDS011;31756;47.936;16.224;2022-12-18T02:52:42;24.38;;;11.57;;
46022;SDS011;31756;47.936;16.224;2022-12-18T03:03:34;28.57;;;13.73;;
46022;SDS011;31756;47.936;16.224;2022-12-18T03:06:20;19.17;;;11.80;;
46022;SDS011;31756;47.936;16.224;2022-12-18T03:08:51;26.23;;;12.17;;
46022;SDS011;31756;47.936;16.224;2022-12-18T03:11:25;27.98;;;12.63;;
46022;SDS011;31756;47.936;16.224;2022-12-18T03:14:12;21.50;;;11.13;;
46022;SDS011;31756;47.936;16.224;2022-12-18T03:16:44;21.77;;;11.50;;
46022;SDS011;31756;47.936;16.224;2022-12-18T03:19:11;23.13;;;10.67;;
46022;SDS011;31756;47.936;16.224;2022-12-18T03:21:45;22.43;;;12.07;;
46022;SDS011;31756;47.936;16.224;2022-12-18T03:24:15;22.87;;;12.03;;
46022;SDS011;31756;47.936;16.224;2022-12-18T03:26:46;27.50;;;12.13;;
46022;SDS011;31756;47.936;16.224;2022-12-18T03:29:24;25.80;;;12.33;;
46022;SDS011;31756;47.936;16.224;2022-12-18T03:31:54;23.90;;;11.23;;
46022;SDS011;31756;47.936;16.224;2022-12-18T03:34:32;24.40;;;11.23;;
46022;SDS011;31756;47.936;16.224;2022-12-18T03:37:05;21.03;;;10.70;;
46022;SDS011;31756;47.936;16.224;2022-12-18T03:39:35;25.67;;;12.10;;
46022;SDS011;31756;47.936;16.224;2022-12-18T03:42:05;23.83;;;11.50;;
46022;SDS011;31756;47.936;16.224;2022-12-18T03:50:14;21.20;;;11.30;;
46022;SDS011;31756;47.936;16.224;2022-12-18T03:52:58;26.63;;;12.13;;
46022;SDS011;31756;47.936;16.224;2022-12-18T03:55:47;21.73;;;10.63;;
46022;SDS011;31756;47.936;16.224;2022-12-18T03:58:15;27.93;;;13.50;;
46022;SDS011;31756;47.936;16.224;2022-12-18T04:00:55;24.47;;;11.93;;
46022;SDS011;31756;47.936;16.224;2022-12-18T04:03:25;23.07;;;10.43;;
46022;SDS011;31756;47.936;16.224;2022-12-18T04:05:55;29.47;;;14.20;;
46022;SDS011;31756;47.936;16.224;2022-12-18T04:08:25;26.97;;;12.83;;
46022;SDS011;31756;47.936;16.224;2022-12-18T04:11:00;19.95;;;12.68;;
46022;SDS011;31756;47.936;16.224;2022-12-18T04:13:28;26.33;;;14.57;;
46022;SDS011;31756;47.936;16.224;2022-12-18T04:15:58;28.17;;;15.60;;
46022;SDS011;31756;47.936;16.224;2022-12-18T04:18:24;24.03;;;13.73;;
46022;SDS011;31756;47.936;16.224;2022-12-18T04:20:50;30.00;;;13.83;;
46022;SDS011;31756;47.936;16.224;2022-12-18T04:23:16;29.20;;;14.03;;
46022;SDS011;31756;47.936;16.224;2022-12-18T04:25:42;25.80;;;13.67;;
46022;SDS011;31756;47.936;16.224;2022-12-18T04:28:11;28.70;;;14.93;;
46022;SDS011;31756;47.936;16.224;2022-12-18T04:30:37;28.03;;;14.07;;
46022;SDS011;31756;47.936;16.224;2022-12-18T04:33:07;25.10;;;13.97;;
46022;SDS011;31756;47.936;16.224;2022-12-18T04:35:34;29.80;;;15.37;;
46022;SDS011;31756;47.936;16.224;2022-12-18T04:37:59;30.37;;;14.13;;
46022;SDS011;31756;47.936;16.224;2022-12-18T04:40:26;32.73;;;13.50;;
46022;SDS011;31756;47.936;16.224;2022-12-18T04:42:52;29.07;;;14.00;;
46022;SDS011;31756;47.936;16.224;2022-12-18T04:45:17;30.67;;;15.83;;
46022;SDS011;31756;47.936;16.224;2022-12-18T04:47:43;27.83;;;13.33;;
46022;SDS011;31756;47.936;16.224;2022-12-18T04:50:09;27.03;;;13.20;;
46022;SDS011;31756;47.936;16.224;2022-12-18T04:52:35;25.73;;;12.97;;
46022;SDS011;31756;47.936;16.224;2022-12-18T04:55:01;32.10;;;13.87;;
46022;SDS011;31756;47.936;16.224;2022-12-18T04:57:27;28.63;;;12.53;;
46022;SDS011;31756;47.936;16.224;2022-12-18T04:59:52;24.27;;;12.83;;
46022;SDS011;31756;47.936;16.224;2022-12-18T05:02:19;21.70;;;11.97;;
46022;SDS011;31756;47.936;16.224;2022-12-18T05:04:44;23.03;;;12.60;;
46022;SDS011;31756;47.936;16.224;2022-12-18T05:07:10;26.80;;;13.00;;
46022;SDS011;31756;47.936;16.224;2022-12-18T05:09:35;23.23;;;11.67;;
46022;SDS011;31756;47.936;16.224;2022-12-18T05:12:01;29.17;;;11.97;;
46022;SDS011;31756;47.936;16.224;2022-12-18T05:14:27;23.87;;;11.87;;
46022;SDS011;31756;47.936;16.224;2022-12-18T05:16:54;26.67;;;11.93;;
46022;SDS011;31756;47.936;16.224;2022-12-18T05:19:20;27.80;;;11.80;;
46022;SDS011;31756;47.936;16.224;2022-12-18T05:21:46;20.80;;;11.87;;
46022;SDS011;31756;47.936;16.224;2022-12-18T05:24:12;32.23;;;12.17;;
46022;SDS011;31756;47.936;16.224;2022-12-18T05:26:38;26.73;;;11.57;;
46022;SDS011;31756;47.936;16.224;2022-12-18T05:29:04;26.07;;;11.63;;
46022;SDS011;31756;47.936;16.224;2022-12-18T05:31:29;30.57;;;13.37;;
46022;SDS011;31756;47.936;16.224;2022-12-18T05:33:55;29.90;;;13.50;;
46022;SDS011;31756;47.936;16.224;2022-12-18T05:36:21;26.87;;;12.50;;
46022;SDS011;31756;47.936;16.224;2022-12-18T05:38:47;30.03;;;13.47;;
46022;SDS011;31756;47.936;16.224;2022-12-18T05:41:12;25.93;;;12.60;;
46022;SDS011;31756;47.936;16.224;2022-12-18T05:43:38;29.67;;;13.17;;
46022;SDS011;31756;47.936;16.224;2022-12-18T05:46:08;29.07;;;13.47;;
46022;SDS011;31756;47.936;16.224;2022-12-18T05:48:38;26.40;;;12.80;;
46022;SDS011;31756;47.936;16.224;2022-12-18T05:51:05;25.77;;;13.17;;
46022;SDS011;31756;47.936;16.224;2022-12-18T05:53:32;31.03;;;14.93;;
46022;SDS011;31756;47.936;16.224;2022-12-18T05:56:02;31.47;;;13.90;;
46022;SDS011;31756;47.936;16.224;2022-12-18T05:58:32;38.23;;;17.87;;
46022;SDS011;31756;47.936;16.224;2022-12-18T06:01:05;38.87;;;16.97;;
46022;SDS011;31756;47.936;16.224;2022-12-18T06:03:33;35.67;;;15.87;;
46022;SDS011;31756;47.936;16.224;2022-12-18T06:05:59;28.57;;;13.93;;
46022;SDS011;31756;47.936;16.224;2022-12-18T06:08:24;29.60;;;13.97;;
46022;SDS011;31756;47.936;16.224;2022-12-18T06:10:51;31.50;;;14.13;;
46022;SDS011;31756;47.936;16.224;2022-12-18T06:13:18;23.07;;;13.20;;
46022;SDS011;31756;47.936;16.224;2022-12-18T06:15:44;24.73;;;12.40;;
46022;SDS011;31756;47.936;16.224;2022-12-18T06:18:10;25.77;;;14.70;;
46022;SDS011;31756;47.936;16.224;2022-12-18T06:20:36;46.57;;;22.17;;
46022;SDS011;31756;47.936;16.224;2022-12-18T06:23:05;43.63;;;21.67;;
46022;SDS011;31756;47.936;16.224;2022-12-18T06:25:31;43.50;;;19.63;;
46022;SDS011;31756;47.936;16.224;2022-12-18T06:27:58;37.07;;;18.70;;
46022;SDS011;31756;47.936;16.224;2022-12-18T06:30:24;38.47;;;16.13;;
46022;SDS011;31756;47.936;16.224;2022-12-18T06:32:50;37.17;;;16.40;;
46022;SDS011;31756;47.936;16.224;2022-12-18T06:35:15;31.13;;;14.47;;
46022;SDS011;31756;47.936;16.224;2022-12-18T06:37:41;31.57;;;13.23;;
46022;SDS011;31756;47.936;16.224;2022-12-18T06:40:07;23.67;;;12.23;;
46022;SDS011;31756;47.936;16.224;2022-12-18T06:42:33;25.83;;;12.67;;
46022;SDS011;31756;47.936;16.224;2022-12-18T06:44:59;29.10;;;12.73;;
46022;SDS011;31756;47.936;16.224;2022-12-18T06:47:25;26.20;;;11.83;;
46022;SDS011;31756;47.936;16.224;2022-12-18T06:49:50;35.03;;;14.47;;
46022;SDS011;31756;47.936;16.224;2022-12-18T06:52:16;27.93;;;12.57;;
46022;SDS011;31756;47.936;16.224;2022-12-18T06:54:42;28.83;;;13.60;;
46022;SDS011;31756;47.936;16.224;2022-12-18T06:57:07;25.40;;;13.57;;
46022;SDS011;31756;47.936;16.224;2022-12-18T06:59:33;25.30;;;12.67;;
46022;SDS011;31756;47.936;16.224;2022-12-18T07:01:58;29.70;;;13.80;;
46022;SDS011;31756;47.936;16.224;2022-12-18T07:04:28;24.97;;;13.00;;
46022;SDS011;31756;47.936;16.224;2022-12-18T07:06:54;29.10;;;11.67;;
46022;SDS011;31756;47.936;16.224;2022-12-18T07:09:20;25.10;;;13.67;;
46022;SDS011;31756;47.936;16.224;2022-12-18T07:11:46;23.13;;;12.27;;
46022;SDS011;31756;47.936;16.224;2022-12-18T07:14:11;22.97;;;12.73;;
46022;SDS011;31756;47.936;16.224;2022-12-18T07:16:37;28.10;;;15.37;;
46022;SDS011;31756;47.936;16.224;2022-12-18T07:19:03;37.57;;;17.77;;
46022;SDS011;31756;47.936;16.224;2022-12-18T07:21:28;32.73;;;16.77;;
46022;SDS011;31756;47.936;16.224;2022-12-18T07:23:54;28.57;;;14.90;;
46022;SDS011;31756;47.936;16.224;2022-12-18T07:26:20;28.03;;;14.40;;
46022;SDS011;31756;47.936;16.224;2022-12-18T07:28:46;31.00;;;14.27;;
46022;SDS011;31756;47.936;16.224;2022-12-18T07:31:14;30.03;;;13.20;;
46022;SDS011;31756;47.936;16.224;2022-12-18T07:33:42;29.20;;;14.13;;
46022;SDS011;31756;47.936;16.224;2022-12-18T07:36:09;29.70;;;13.90;;
46022;SDS011;31756;47.936;16.224;2022-12-18T07:38:35;32.03;;;14.53;;
46022;SDS011;31756;47.936;16.224;2022-12-18T07:41:02;34.03;;;14.50;;
46022;SDS011;31756;47.936;16.224;2022-12-18T07:43:30;45.70;;;19.33;;
46022;SDS011;31756;47.936;16.224;2022-12-18T07:45:56;74.30;;;29.17;;
46022;SDS011;31756;47.936;16.224;2022-12-18T07:48:21;76.97;;;30.77;;
46022;SDS011;31756;47.936;16.224;2022-12-18T07:50:47;86.43;;;32.83;;
46022;SDS011;31756;47.936;16.224;2022-12-18T07:53:14;62.83;;;26.13;;
46022;SDS011;31756;47.936;16.224;2022-12-18T07:55:40;53.10;;;25.67;;
46022;SDS011;31756;47.936;16.224;2022-12-18T07:58:06;30.90;;;17.13;;
46022;SDS011;31756;47.936;16.224;2022-12-18T08:00:36;30.77;;;15.63;;
46022;SDS011;31756;47.936;16.224;2022-12-18T08:03:02;31.70;;;15.10;;
46022;SDS011;31756;47.936;16.224;2022-12-18T08:05:28;27.20;;;15.03;;
46022;SDS011;31756;47.936;16.224;2022-12-18T08:07:53;26.07;;;14.00;;
46022;SDS011;31756;47.936;16.224;2022-12-18T08:10:20;23.73;;;12.63;;
46022;SDS011;31756;47.936;16.224;2022-12-18T08:12:48;23.23;;;13.07;;
46022;SDS011;31756;47.936;16.224;2022-12-18T08:15:15;24.03;;;11.70;;
46022;SDS011;31756;47.936;16.224;2022-12-18T08:17:41;106.20;;;38.17;;
46022;SDS011;31756;47.936;16.224;2022-12-18T08:20:07;96.27;;;32.70;;
46022;SDS011;31756;47.936;16.224;2022-12-18T08:22:34;63.07;;;24.93;;
46022;SDS011;31756;47.936;16.224;2022-12-18T08:25:01;105.73;;;38.07;;
46022;SDS011;31756;47.936;16.224;2022-12-18T08:27:27;70.83;;;28.03;;
46022;SDS011;31756;47.936;16.224;2022-12-18T08:29:53;51.23;;;21.37;;
46022;SDS011;31756;47.936;16.224;2022-12-18T08:32:18;45.13;;;19.97;;
46022;SDS011;31756;47.936;16.224;2022-12-18T08:34:44;35.67;;;15.90;;
46022;SDS011;31756;47.936;16.224;2022-12-18T08:37:09;26.13;;;15.13;;
46022;SDS011;31756;47.936;16.224;2022-12-18T08:39:35;31.20;;;15.17;;
46022;SDS011;31756;47.936;16.224;2022-12-18T08:42:01;31.47;;;15.23;;
46022;SDS011;31756;47.936;16.224;2022-12-18T08:44:45;36.43;;;18.27;;
46022;SDS011;31756;47.936;16.224;2022-12-18T08:47:11;37.80;;;19.30;;
46022;SDS011;31756;47.936;16.224;2022-12-18T08:49:36;39.70;;;18.83;;
46022;SDS011;31756;47.936;16.224;2022-12-18T08:52:02;38.53;;;19.73;;
46022;SDS011;31756;47.936;16.224;2022-12-18T08:54:28;26.57;;;14.43;;
46022;SDS011;31756;47.936;16.224;2022-12-18T08:56:54;24.83;;;13.73;;
46022;SDS011;31756;47.936;16.224;2022-12-18T08:59:20;26.63;;;12.73;;
46022;SDS011;31756;47.936;16.224;2022-12-18T09:01:46;22.47;;;12.43;;
46022;SDS011;31756;47.936;16.224;2022-12-18T09:04:13;25.23;;;13.97;;
46022;SDS011;31756;47.936;16.224;2022-12-18T09:06:39;20.33;;;12.80;;
46022;SDS011;31756;47.936;16.224;2022-12-18T09:09:05;23.00;;;13.77;;
46022;SDS011;31756;47.936;16.224;2022-12-18T09:11:31;25.57;;;13.23;;
46022;SDS011;31756;47.936;16.224;2022-12-18T09:13:58;26.13;;;12.23;;
46022;SDS011;31756;47.936;16.224;2022-12-18T09:16:25;31.03;;;14.10;;
46022;SDS011;31756;47.936;16.224;2022-12-18T09:18:54;22.13;;;12.80;;
46022;SDS011;31756;47.936;16.224;2022-12-18T09:21:25;26.63;;;13.27;;
46022;SDS011;31756;47.936;16.224;2022-12-18T09:23:53;26.93;;;12.93;;
46022;SDS011;31756;47.936;16.224;2022-12-18T09:26:20;31.60;;;16.77;;
46022;SDS011;31756;47.936;16.224;2022-12-18T09:28:47;29.00;;;15.20;;
46022;SDS011;31756;47.936;16.224;2022-12-18T09:31:13;27.67;;;14.23;;
46022;SDS011;31756;47.936;16.224;2022-12-18T09:33:40;29.87;;;13.73;;
46022;SDS011;31756;47.936;16.224;2022-12-18T09:36:07;31.07;;;16.23;;
46022;SDS011;31756;47.936;16.224;2022-12-18T09:38:36;27.27;;;14.70;;
46022;SDS011;31756;47.936;16.224;2022-12-18T09:43:45;23.70;;;12.63;;
46022;SDS011;31756;47.936;16.224;2022-12-18T09:46:19;25.07;;;13.83;;
46022;SDS011;31756;47.936;16.224;2022-12-18T09:48:52;22.67;;;12.67;;
46022;SDS011;31756;47.936;16.224;2022-12-18T09:51:22;21.93;;;13.27;;
46022;SDS011;31756;47.936;16.224;2022-12-18T09:53:54;23.07;;;13.07;;
46022;SDS011;31756;47.936;16.224;2022-12-18T09:56:28;22.58;;;12.63;;
46022;SDS011;31756;47.936;16.224;2022-12-18T09:59:00;24.13;;;13.20;;
46022;SDS011;31756;47.936;16.224;2022-12-18T10:01:27;23.40;;;13.57;;
46022;SDS011;31756;47.936;16.224;2022-12-18T10:03:54;22.73;;;12.90;;
46022;SDS011;31756;47.936;16.224;2022-12-18T10:27:45;29.20;;;15.17;;
46022;SDS011;31756;47.936;16.224;2022-12-18T10:30:14;25.40;;;13.47;;
46022;SDS011;31756;47.936;16.224;2022-12-18T10:32:42;27.87;;;14.60;;
46022;SDS011;31756;47.936;16.224;2022-12-18T10:35:17;24.00;;;13.27;;
46022;SDS011;31756;47.936;16.224;2022-12-18T10:38:05;24.37;;;12.00;;
46022;SDS011;31756;47.936;16.224;2022-12-18T10:40:31;29.40;;;15.13;;
46022;SDS011;31756;47.936;16.224;2022-12-18T10:43:04;28.57;;;14.23;;
46022;SDS011;31756;47.936;16.224;2022-12-18T10:45:35;29.13;;;14.77;;
46022;SDS011;31756;47.936;16.224;2022-12-18T10:48:01;28.63;;;15.03;;
46022;SDS011;31756;47.936;16.224;2022-12-18T10:50:29;38.00;;;15.80;;
46022;SDS011;31756;47.936;16.224;2022-12-18T10:53:01;28.53;;;15.63;;
46022;SDS011;31756;47.936;16.224;2022-12-18T10:55:33;29.37;;;15.63;;
46022;SDS011;31756;47.936;16.224;2022-12-18T11:03:44;29.13;;;15.47;;
46022;SDS011;31756;47.936;16.224;2022-12-18T11:06:14;30.63;;;15.90;;
46022;SDS011;31756;47.936;16.224;2022-12-18T11:08:43;34.13;;;16.07;;
46022;SDS011;31756;47.936;16.224;2022-12-18T11:11:24;33.67;;;14.87;;
46022;SDS011;31756;47.936;16.224;2022-12-18T11:13:53;32.87;;;15.83;;
46022;SDS011;31756;47.936;16.224;2022-12-18T11:16:22;28.20;;;13.80;;
46022;SDS011;31756;47.936;16.224;2022-12-18T11:18:48;30.23;;;15.00;;
46022;SDS011;31756;47.936;16.224;2022-12-18T11:21:14;35.23;;;15.43;;
46022;SDS011;31756;47.936;16.224;2022-12-18T11:23:50;31.40;;;17.03;;
46022;SDS011;31756;47.936;16.224;2022-12-18T11:26:17;34.40;;;16.40;;
46022;SDS011;31756;47.936;16.224;2022-12-18T11:36:32;27.70;;;14.27;;
46022;SDS011;31756;47.936;16.224;2022-12-18T11:39:03;27.20;;;13.97;;
46022;SDS011;31756;47.936;16.224;2022-12-18T11:41:42;27.83;;;14.00;;
46022;SDS011;31756;47.936;16.224;2022-12-18T11:44:43;26.73;;;13.70;;
46022;SDS011;31756;47.936;16.224;2022-12-18T11:47:21;33.13;;;14.47;;
46022;SDS011;31756;47.936;16.224;2022-12-18T11:50:12;26.07;;;13.87;;
46022;SDS011;31756;47.936;16.224;2022-12-18T11:52:41;30.10;;;15.00;;
46022;SDS011;31756;47.936;16.224;2022-12-18T12:00:30;27.37;;;13.77;;
46022;SDS011;31756;47.936;16.224;2022-12-18T12:13:30;26.57;;;13.57;;
46022;SDS011;31756;47.936;16.224;2022-12-18T12:16:09;26.83;;;14.43;;
46022;SDS011;31756;47.936;16.224;2022-12-18T12:27:28;33.50;;;15.10;;
46022;SDS011;31756;47.936;16.224;2022-12-18T12:32:40;36.17;;;17.67;;
46022;SDS011;31756;47.936;16.224;2022-12-18T12:40:59;34.13;;;18.37;;
46022;SDS011;31756;47.936;16.224;2022-12-18T12:43:37;33.17;;;17.73;;
46022;SDS011;31756;47.936;16.224;2022-12-18T12:46:08;33.37;;;17.00;;
46022;SDS011;31756;47.936;16.224;2022-12-18T12:48:58;34.83;;;17.53;;
46022;SDS011;31756;47.936;16.224;2022-12-18T12:51:34;35.23;;;18.20;;
46022;SDS011;31756;47.936;16.224;2022-12-18T12:54:03;31.63;;;17.67;;
46022;SDS011;31756;47.936;16.224;2022-12-18T12:56:39;41.42;;;20.35;;
46022;SDS011;31756;47.936;16.224;2022-12-18T13:04:49;39.50;;;19.40;;
46022;SDS011;31756;47.936;16.224;2022-12-18T13:15:27;62.10;;;30.13;;
46022;SDS011;31756;47.936;16.224;2022-12-18T13:18:04;90.40;;;36.80;;
46022;SDS011;31756;47.936;16.224;2022-12-18T13:25:50;77.07;;;31.37;;
46022;SDS011;31756;47.936;16.224;2022-12-18T13:31:09;69.70;;;26.27;;
46022;SDS011;31756;47.936;16.224;2022-12-18T13:41:53;60.47;;;25.60;;
46022;SDS011;31756;47.936;16.224;2022-12-18T13:44:59;61.97;;;29.00;;
46022;SDS011;31756;47.936;16.224;2022-12-18T13:47:32;46.40;;;24.33;;
46022;SDS011;31756;47.936;16.224;2022-12-18T13:50:00;44.38;;;21.88;;
46022;SDS011;31756;47.936;16.224;2022-12-18T13:52:35;46.70;;;22.27;;
46022;SDS011;31756;47.936;16.224;2022-12-18T13:55:05;46.17;;;24.67;;
46022;SDS011;31756;47.936;16.224;2022-12-18T13:57:39;52.43;;;23.63;;
46022;SDS011;31756;47.936;16.224;2022-12-18T14:00:25;53.63;;;26.50;;
46022;SDS011;31756;47.936;16.224;2022-12-18T14:02:54;55.73;;;25.67;;
46022;SDS011;31756;47.936;16.224;2022-12-18T14:07:49;47.10;;;22.87;;
46022;SDS011;31756;47.936;16.224;2022-12-18T14:10:15;53.57;;;24.97;;
46022;SDS011;31756;47.936;16.224;2022-12-18T14:12:44;50.40;;;24.80;;
46022;SDS011;31756;47.936;16.224;2022-12-18T14:15:43;45.77;;;23.43;;
46022;SDS011;31756;47.936;16.224;2022-12-18T14:20:59;52.73;;;23.63;;
46022;SDS011;31756;47.936;16.224;2022-12-18T14:23:40;55.70;;;25.77;;
46022;SDS011;31756;47.936;16.224;2022-12-18T14:26:23;50.23;;;24.73;;
46022;SDS011;31756;47.936;16.224;2022-12-18T14:28:57;50.17;;;24.57;;
46022;SDS011;31756;47.936;16.224;2022-12-18T14:31:30;50.50;;;24.20;;
46022;SDS011;31756;47.936;16.224;2022-12-18T14:33:56;52.87;;;23.10;;
46022;SDS011;31756;47.936;16.224;2022-12-18T14:36:26;49.53;;;24.00;;
46022;SDS011;31756;47.936;16.224;2022-12-18T14:38:55;52.23;;;25.00;;
46022;SDS011;31756;47.936;16.224;2022-12-18T14:41:22;46.47;;;22.33;;
46022;SDS011;31756;47.936;16.224;2022-12-18T14:43:50;51.97;;;24.17;;
46022;SDS011;31756;47.936;16.224;2022-12-18T14:46:37;51.20;;;24.83;;
46022;SDS011;31756;47.936;16.224;2022-12-18T14:49:17;46.00;;;22.63;;
46022;SDS011;31756;47.936;16.224;2022-12-18T14:51:54;43.47;;;22.90;;
46022;SDS011;31756;47.936;16.224;2022-12-18T14:54:25;43.73;;;21.13;;
46022;SDS011;31756;47.936;16.224;2022-12-18T14:56:59;52.63;;;25.33;;
46022;SDS011;31756;47.936;16.224;2022-12-18T14:59:27;48.95;;;22.98;;
46022;SDS011;31756;47.936;16.224;2022-12-18T15:07:09;44.20;;;23.42;;
46022;SDS011;31756;47.936;16.224;2022-12-18T15:09:42;48.43;;;22.37;;
46022;SDS011;31756;47.936;16.224;2022-12-18T15:12:27;44.10;;;25.83;;
46022;SDS011;31756;47.936;16.224;2022-12-18T15:15:00;46.40;;;21.35;;
46022;SDS011;31756;47.936;16.224;2022-12-18T15:17:26;44.87;;;24.60;;
46022;SDS011;31756;47.936;16.224;2022-12-18T15:19:57;57.17;;;26.67;;
46022;SDS011;31756;47.936;16.224;2022-12-18T15:22:27;45.53;;;23.67;;
46022;SDS011;31756;47.936;16.224;2022-12-18T15:25:03;75.17;;;30.97;;
46022;SDS011;31756;47.936;16.224;2022-12-18T15:27:52;116.60;;;36.97;;
46022;SDS011;31756;47.936;16.224;2022-12-18T15:30:22;163.17;;;55.73;;
46022;SDS011;31756;47.936;16.224;2022-12-18T15:32:50;75.30;;;32.70;;
46022;SDS011;31756;47.936;16.224;2022-12-18T15:37:46;50.90;;;23.83;;
46022;SDS011;31756;47.936;16.224;2022-12-18T15:40:13;48.77;;;22.37;;
46022;SDS011;31756;47.936;16.224;2022-12-18T15:42:41;49.80;;;27.13;;
46022;SDS011;31756;47.936;16.224;2022-12-18T15:45:26;49.33;;;22.98;;
46022;SDS011;31756;47.936;16.224;2022-12-18T15:47:53;54.03;;;24.63;;
46022;SDS011;31756;47.936;16.224;2022-12-18T15:50:19;55.77;;;24.10;;
46022;SDS011;31756;47.936;16.224;2022-12-18T15:52:46;52.03;;;24.90;;
46022;SDS011;31756;47.936;16.224;2022-12-18T15:55:16;56.43;;;24.03;;
46022;SDS011;31756;47.936;16.224;2022-12-18T15:58:06;58.17;;;25.93;;
46022;SDS011;31756;47.936;16.224;2022-12-18T16:00:34;52.23;;;26.43;;
46022;SDS011;31756;47.936;16.224;2022-12-18T16:03:03;56.80;;;26.10;;
46022;SDS011;31756;47.936;16.224;2022-12-18T16:05:32;64.53;;;29.33;;
46022;SDS011;31756;47.936;16.224;2022-12-18T16:07:58;58.07;;;24.47;;
46022;SDS011;31756;47.936;16.224;2022-12-18T16:10:24;56.80;;;25.07;;
46022;SDS011;31756;47.936;16.224;2022-12-18T16:12:52;55.50;;;26.13;;
46022;SDS011;31756;47.936;16.224;2022-12-18T16:15:20;57.20;;;27.27;;
46022;SDS011;31756;47.936;16.224;2022-12-18T16:17:47;51.60;;;26.33;;
46022;SDS011;31756;47.936;16.224;2022-12-18T16:20:14;55.83;;;22.90;;
46022;SDS011;31756;47.936;16.224;2022-12-18T16:22:43;56.50;;;29.00;;
46022;SDS011;31756;47.936;16.224;2022-12-18T16:25:18;50.10;;;23.50;;
46022;SDS011;31756;47.936;16.224;2022-12-18T16:27:47;49.70;;;24.37;;
46022;SDS011;31756;47.936;16.224;2022-12-18T16:30:18;52.63;;;26.47;;
46022;SDS011;31756;47.936;16.224;2022-12-18T16:32:45;55.03;;;23.70;;
46022;SDS011;31756;47.936;16.224;2022-12-18T16:35:12;54.90;;;25.73;;
46022;SDS011;31756;47.936;16.224;2022-12-18T16:37:40;60.07;;;25.63;;
46022;SDS011;31756;47.936;16.224;2022-12-18T16:40:08;62.97;;;27.80;;
46022;SDS011;31756;47.936;16.224;2022-12-18T16:42:38;60.37;;;28.37;;
46022;SDS011;31756;47.936;16.224;2022-12-18T16:45:06;62.10;;;26.70;;
46022;SDS011;31756;47.936;16.224;2022-12-18T16:47:33;54.87;;;26.40;;
46022;SDS011;31756;47.936;16.224;2022-12-18T16:49:59;54.53;;;25.80;;
46022;SDS011;31756;47.936;16.224;2022-12-18T16:52:26;55.37;;;27.57;;